首页
METAR-TAF:

METAR-TAF

机场 :

Alma, 密歇根州, 美国

纬度: 43-19-19N, 经度: 084-41-16W, 海拔: 229米

当前天气观测

该预报发布于26分钟前的20:16 UTC
风速14节,风向西,有时为18节阵风
温度 -3°C
湿度 39%
气压 1032 hPa
能見度: 16.1公里
天空无云

METAR: KAMN 192016Z AUTO 26014G18KT 10SM CLR M03/M15 A3048 RMK AO2 T10291150

时间: 15:42 (20:42 UTC)


TAF: 丢失

超过4000个机场的气象观测和天气预报(METAR&TAF报告)。

可查询的气象台以黄色和红色小点在地图上表示。

将鼠标移到小点上方,可查看气象台名称。

然后点击查看天气观测和预报。

如需切换地图:点击带黑十字的绿色按钮放大地图;点击带横线的绿色按钮缩小地图;或者点击绿色箭头查看邻近地区的地图。


METAR-TAF: